Time;durP1;ratioP1;P1;durP2;ratioP2;P2;SDS_P1;SDS_P2;PMS_P1;PMS_P2;Temp;Humidity;BMP_temperature;BMP_pressure;BME280_temperature;BME280_humidity;BME280_pressure;Samples;Min_cycle;Max_cycle;Signal;HPM_P1;HPM_P2
2023/03/25 00:01:36;;;;;;;5.53;5.03;;;;;;;;;;5014123;28;20160;-78
2023/03/25 00:04:03;;;;;;;8.02;5.20;;;;;;;;;;5006803;28;20045;-78
2023/03/25 00:06:28;;;;;;;6.93;5.70;;;;;;;;;;5021161;28;20021;-78
2023/03/25 00:08:54;;;;;;;5.57;5.07;;;;;;;;;;5021022;28;20022;-78
2023/03/25 00:11:20;;;;;;;6.57;5.90;;;;;;;;;;5019555;28;20029;-78
2023/03/25 00:13:46;;;;;;;6.45;5.85;;;;;;;;;;5021121;28;20464;-79
2023/03/25 00:16:12;;;;;;;6.60;5.95;;;;;;;;;;5018648;28;20554;-78
2023/03/25 00:18:38;;;;;;;6.88;6.18;;;;;;;;;;5020680;28;20538;-78
2023/03/25 00:21:06;;;;;;;6.53;5.85;;;;;;;;;;5019619;28;20048;-78
2023/03/25 00:23:31;;;;;;;5.85;5.35;;;;;;;;;;5023439;28;20520;-78
2023/03/25 00:25:59;;;;;;;8.13;6.28;;;;;;;;;;5023745;28;20021;-78
2023/03/25 00:28:29;;;;;;;5.82;5.32;;;;;;;;;;5017949;28;20624;-78
2023/03/25 00:30:57;;;;;;;5.60;5.10;;;;;;;;;;5017803;28;20017;-78
2023/03/25 00:33:22;;;;;;;10.57;5.80;;;;;;;;;;5008237;28;20041;-77
2023/03/25 00:35:51;;;;;;;6.65;5.80;;;;;;;;;;5024146;28;20049;-77
2023/03/25 00:38:17;;;;;;;6.43;5.88;;;;;;;;;;5004646;28;20018;-78
2023/03/25 00:40:42;;;;;;;8.07;6.32;;;;;;;;;;5014844;28;20099;-78
2023/03/25 00:43:08;;;;;;;8.82;5.45;;;;;;;;;;5023299;28;20029;-78
2023/03/25 00:45:34;;;;;;;6.03;5.53;;;;;;;;;;5024265;28;20017;-78
2023/03/25 00:47:59;;;;;;;7.07;5.40;;;;;;;;;;5036200;28;20501;-78
2023/03/25 00:50:25;;;;;;;7.05;6.35;;;;;;;;;;5024062;28;20452;-78
2023/03/25 00:52:52;;;;;;;6.60;5.78;;;;;;;;;;5013404;28;20026;-79
2023/03/25 00:55:17;;;;;;;5.60;5.10;;;;;;;;;;5020520;28;20485;-78
2023/03/25 00:57:43;;;;;;;7.43;6.57;;;;;;;;;;5023710;28;20047;-78
2023/03/25 01:00:10;;;;;;;6.05;5.55;;;;;;;;;;5020431;28;20029;-77
2023/03/25 01:02:35;;;;;;;6.07;5.57;;;;;;;;;;5010858;28;20041;-77
2023/03/25 01:05:01;;;;;;;6.80;6.10;;;;;;;;;;5019348;28;20426;-77
2023/03/25 01:07:30;;;;;;;6.70;5.68;;;;;;;;;;5022826;28;20516;-78
2023/03/25 01:09:57;;;;;;;;;;;;;;;;;;5023648;28;20508;-77
2023/03/25 01:12:23;;;;;;;7.53;6.03;;;;;;;;;;5004099;28;20287;-77
2023/03/25 01:14:49;;;;;;;7.10;6.40;;;;;;;;;;5003142;28;20037;-77
2023/03/25 01:17:14;;;;;;;8.93;8.13;;;;;;;;;;5018520;28;20017;-77
2023/03/25 01:19:39;;;;;;;7.10;6.40;;;;;;;;;;5023499;28;20672;-79
2023/03/25 01:22:04;;;;;;;7.65;6.10;;;;;;;;;;5024156;28;20062;-79
2023/03/25 01:24:31;;;;;;;6.50;6.00;;;;;;;;;;5023797;28;20025;-78
2023/03/25 01:26:56;;;;;;;7.57;6.78;;;;;;;;;;5023497;28;20105;-80
2023/03/25 01:29:21;;;;;;;6.97;6.38;;;;;;;;;;5025184;28;20108;-79
2023/03/25 01:31:47;;;;;;;7.20;6.60;;;;;;;;;;5024704;28;20040;-80
2023/03/25 01:34:13;;;;;;;7.68;6.72;;;;;;;;;;5024387;28;20022;-79
2023/03/25 01:36:39;;;;;;;7.85;6.63;;;;;;;;;;5015277;28;20087;-79
2023/03/25 01:39:05;;;;;;;7.53;6.82;;;;;;;;;;5017284;28;20132;-78
2023/03/25 01:41:31;;;;;;;6.88;6.13;;;;;;;;;;5022528;28;20029;-78
2023/03/25 01:44:00;;;;;;;8.55;7.32;;;;;;;;;;5023010;28;20025;-78
2023/03/25 01:46:25;;;;;;;9.32;7.20;;;;;;;;;;5023533;28;20601;-78
2023/03/25 01:48:50;;;;;;;8.15;6.68;;;;;;;;;;5037082;28;20027;-79
2023/03/25 01:51:17;;;;;;;15.35;7.63;;;;;;;;;;5025088;28;20027;-79
2023/03/25 01:53:42;;;;;;;7.13;6.43;;;;;;;;;;5026021;28;20024;-79
2023/03/25 01:56:10;;;;;;;8.38;7.57;;;;;;;;;;5023962;28;20033;-79
2023/03/25 01:58:36;;;;;;;8.40;7.50;;;;;;;;;;5020381;28;20033;-79
2023/03/25 02:01:02;;;;;;;9.70;8.43;;;;;;;;;;5014580;28;20058;-79
2023/03/25 02:03:29;;;;;;;9.13;8.18;;;;;;;;;;5017095;28;20403;-78
2023/03/25 02:05:55;;;;;;;10.13;7.55;;;;;;;;;;5017094;28;20407;-79
2023/03/25 02:08:21;;;;;;;8.60;7.60;;;;;;;;;;5009150;28;20085;-79
2023/03/25 02:10:47;;;;;;;8.95;7.70;;;;;;;;;;5023084;28;20410;-79
2023/03/25 02:13:13;;;;;;;8.88;7.90;;;;;;;;;;5012955;28;20021;-79
2023/03/25 02:15:58;;;;;;;11.10;7.57;;;;;;;;;;5003323;28;20111;-79
2023/03/25 02:18:36;;;;;;;12.18;8.20;;;;;;;;;;5019379;28;20018;-79
2023/03/25 02:21:11;;;;;;;9.27;8.38;;;;;;;;;;5028264;28;20052;-79
2023/03/25 02:23:46;;;;;;;10.10;8.27;;;;;;;;;;5029280;28;20048;-80
2023/03/25 02:26:31;;;;;;;8.90;8.00;;;;;;;;;;5006946;28;20014;-78
2023/03/25 02:29:22;;;;;;;9.10;8.10;;;;;;;;;;5017252;28;20033;-78
2023/03/25 02:32:06;;;;;;;8.88;8.02;;;;;;;;;;5023454;28;20040;-78
2023/03/25 02:34:50;;;;;;;10.70;9.63;;;;;;;;;;5020694;28;20082;-78
2023/03/25 02:37:21;;;;;;;10.25;9.13;;;;;;;;;;5021671;28;20029;-78
2023/03/25 02:39:52;;;;;;;9.38;7.88;;;;;;;;;;5007685;28;20025;-78
2023/03/25 02:42:20;;;;;;;11.05;8.25;;;;;;;;;;5009085;28;20065;-78
2023/03/25 02:44:51;;;;;;;9.63;8.63;;;;;;;;;;5015517;28;20034;-78
2023/03/25 02:47:19;;;;;;;9.82;7.82;;;;;;;;;;5019587;28;20096;-78
2023/03/25 02:49:50;;;;;;;10.18;8.65;;;;;;;;;;5028481;28;20025;-78
2023/03/25 02:52:25;;;;;;;8.85;7.95;;;;;;;;;;5020634;28;20048;-78
2023/03/25 02:54:51;;;;;;;9.60;7.72;;;;;;;;;;5010236;28;20037;-78
2023/03/25 02:57:19;;;;;;;9.57;8.57;;;;;;;;;;5017976;28;20025;-78
2023/03/25 02:59:47;;;;;;;9.93;8.50;;;;;;;;;;5021267;28;20775;-78
2023/03/25 03:02:14;;;;;;;9.97;8.97;;;;;;;;;;5021068;28;20049;-78
2023/03/25 03:04:50;;;;;;;10.73;8.30;;;;;;;;;;5021328;28;20527;-79
2023/03/25 03:07:21;;;;;;;11.45;8.68;;;;;;;;;;5021303;28;20025;-78
2023/03/25 03:09:51;;;;;;;9.07;8.27;;;;;;;;;;5020469;28;20021;-78
2023/03/25 03:12:16;;;;;;;9.32;8.43;;;;;;;;;;5021217;28;20120;-78
2023/03/25 03:14:47;;;;;;;9.57;8.43;;;;;;;;;;5020168;28;20097;-78
2023/03/25 03:17:48;;;;;;;8.98;7.95;;;;;;;;;;5021307;28;20116;-78
2023/03/25 03:20:32;;;;;;;9.63;8.70;;;;;;;;;;5030221;28;20029;-78
2023/03/25 03:23:04;;;;;;;10.93;8.82;;;;;;;;;;5019994;28;20564;-78
2023/03/25 03:25:45;;;;;;;10.68;8.52;;;;;;;;;;5020995;28;20028;-78
2023/03/25 03:28:18;;;;;;;8.80;8.00;;;;;;;;;;5020619;28;20132;-78
2023/03/25 03:30:47;;;;;;;12.10;8.70;;;;;;;;;;5019871;28;20025;-78
2023/03/25 03:33:24;;;;;;;9.13;8.25;;;;;;;;;;5020954;28;20025;-78
2023/03/25 03:36:15;;;;;;;8.88;7.60;;;;;;;;;;5004748;28;20034;-78
2023/03/25 03:38:47;;;;;;;10.70;8.50;;;;;;;;;;5021139;28;20491;-78
2023/03/25 03:41:15;;;;;;;9.13;8.18;;;;;;;;;;5020371;28;20029;-78
2023/03/25 03:44:01;;;;;;;10.07;8.52;;;;;;;;;;5009650;28;20029;-78
2023/03/25 03:46:42;;;;;;;12.15;9.20;;;;;;;;;;5010994;28;20490;-78
2023/03/25 03:49:09;;;;;;;9.82;8.63;;;;;;;;;;5031817;28;20032;-78
2023/03/25 03:51:35;;;;;;;10.10;9.10;;;;;;;;;;5020246;28;20009;-78
2023/03/25 03:54:04;;;;;;;11.13;9.38;;;;;;;;;;5017549;28;20025;-77
2023/03/25 03:56:37;;;;;;;10.50;9.45;;;;;;;;;;5020263;28;20541;-77
2023/03/25 03:59:07;;;;;;;12.30;10.27;;;;;;;;;;5019868;28;20024;-78
2023/03/25 04:01:44;;;;;;;10.93;9.18;;;;;;;;;;5020080;28;20053;-77
2023/03/25 04:04:11;;;;;;;13.48;8.88;;;;;;;;;;5005987;28;20663;-78
2023/03/25 04:06:42;;;;;;;10.07;8.90;;;;;;;;;;5008224;28;20018;-78
2023/03/25 04:09:43;;;;;;;14.10;10.70;;;;;;;;;;5019017;28;20484;-78
2023/03/25 04:12:19;;;;;;;10.55;8.50;;;;;;;;;;5036890;28;20029;-78
2023/03/25 04:14:45;;;;;;;11.30;9.13;;;;;;;;;;5035474;28;20092;-78
2023/03/25 04:17:10;;;;;;;10.65;9.57;;;;;;;;;;5019652;28;20033;-78
2023/03/25 04:19:36;;;;;;;10.57;9.00;;;;;;;;;;5020238;28;20044;-77
2023/03/25 04:22:01;;;;;;;10.32;9.27;;;;;;;;;;5019778;28;20029;-78
2023/03/25 04:24:30;;;;;;;12.82;11.30;;;;;;;;;;5019503;28;20093;-78
2023/03/25 04:26:56;;;;;;;17.15;10.18;;;;;;;;;;5020298;28;20049;-78
2023/03/25 04:29:22;;;;;;;11.15;10.05;;;;;;;;;;5001178;28;20068;-78
2023/03/25 04:31:48;;;;;;;14.38;11.93;;;;;;;;;;5010028;28;20017;-78
2023/03/25 04:34:14;;;;;;;14.60;11.95;;;;;;;;;;5019507;28;20018;-78
2023/03/25 04:36:41;;;;;;;13.05;11.75;;;;;;;;;;5019726;28;20454;-78
2023/03/25 04:39:07;;;;;;;11.68;10.18;;;;;;;;;;5019575;28;20049;-77
2023/03/25 04:41:33;;;;;;;9.95;8.98;;;;;;;;;;5018930;28;20491;-77
2023/03/25 04:43:58;;;;;;;13.35;9.63;;;;;;;;;;5019499;28;20025;-79
2023/03/25 04:46:24;;;;;;;10.32;9.27;;;;;;;;;;5018936;28;20018;-78
2023/03/25 04:48:49;;;;;;;13.63;9.02;;;;;;;;;;5030050;28;20025;-78
2023/03/25 04:51:14;;;;;;;16.02;12.52;;;;;;;;;;5007428;28;20022;-78
2023/03/25 04:53:40;;;;;;;10.32;9.23;;;;;;;;;;5018625;28;20407;-77
2023/03/25 04:56:06;;;;;;;12.98;9.88;;;;;;;;;;5019257;28;20115;-77
2023/03/25 04:58:32;;;;;;;12.00;8.80;;;;;;;;;;5019770;28;20531;-77
2023/03/25 05:01:04;;;;;;;10.48;9.00;;;;;;;;;;5018707;28;20128;-77
2023/03/25 05:03:30;;;;;;;9.77;8.77;;;;;;;;;;5019037;28;20041;-78
2023/03/25 05:05:55;;;;;;;10.77;9.77;;;;;;;;;;5019598;28;20017;-78
2023/03/25 05:08:21;;;;;;;8.55;7.85;;;;;;;;;;5016035;28;20033;-78
2023/03/25 05:10:47;;;;;;;7.93;7.22;;;;;;;;;;5016939;28;20033;-78
2023/03/25 05:13:12;;;;;;;11.00;7.65;;;;;;;;;;5027246;28;20051;-79
2023/03/25 05:15:42;;;;;;;7.72;7.03;;;;;;;;;;5022023;28;20018;-79
2023/03/25 05:18:14;;;;;;;11.57;7.95;;;;;;;;;;5021579;28;20415;-78
2023/03/25 05:20:43;;;;;;;6.85;6.35;;;;;;;;;;5010101;28;20022;-79
2023/03/25 05:23:11;;;;;;;;;;;;;;;;;;5015599;28;20044;-80
2023/03/25 05:25:40;;;;;;;8.57;7.07;;;;;;;;;;5020189;28;19913;-79
2023/03/25 05:28:08;;;;;;;;;;;;;;;;;;5017103;28;20512;-78
2023/03/25 05:30:37;;;;;;;7.55;6.95;;;;;;;;;;5019627;28;19911;-79
2023/03/25 05:33:03;;;;;;;9.02;8.15;;;;;;;;;;5009144;28;20140;-78
2023/03/25 05:35:28;;;;;;;7.82;7.07;;;;;;;;;;5022907;28;20117;-80
2023/03/25 05:37:54;;;;;;;8.77;7.87;;;;;;;;;;5013093;28;20028;-82
2023/03/25 05:40:20;;;;;;;7.32;6.72;;;;;;;;;;5015562;28;20325;-78
2023/03/25 05:42:45;;;;;;;9.68;7.38;;;;;;;;;;5025186;28;20667;-79
2023/03/25 05:45:11;;;;;;;10.75;8.90;;;;;;;;;;5018943;28;20059;-80
2023/03/25 05:47:36;;;;;;;9.02;8.32;;;;;;;;;;5029831;28;20092;-81
2023/03/25 05:50:01;;;;;;;9.00;8.20;;;;;;;;;;5019620;28;20071;-81
2023/03/25 05:52:26;;;;;;;7.97;7.38;;;;;;;;;;5013353;28;20018;-79
2023/03/25 05:54:54;;;;;;;6.70;6.17;;;;;;;;;;5009958;28;20039;-80
2023/03/25 05:57:20;;;;;;;7.60;6.70;;;;;;;;;;5014250;28;20373;-81
2023/03/25 05:59:45;;;;;;;6.65;5.78;;;;;;;;;;5013333;28;20028;-80
2023/03/25 06:02:12;;;;;;;7.15;6.53;;;;;;;;;;5008748;28;20053;-80
2023/03/25 06:04:40;;;;;;;8.10;6.82;;;;;;;;;;5019492;28;20021;-78
2023/03/25 06:07:21;;;;;;;8.50;7.72;;;;;;;;;;5021025;28;20040;-80
2023/03/25 06:09:46;;;;;;;8.32;7.55;;;;;;;;;;5020064;28;20052;-79
2023/03/25 06:12:13;;;;;;;8.27;7.55;;;;;;;;;;5019760;28;20411;-80
2023/03/25 06:14:41;;;;;;;7.65;6.95;;;;;;;;;;5020053;28;20108;-79
2023/03/25 06:17:07;;;;;;;8.13;7.50;;;;;;;;;;5019453;28;20041;-79
2023/03/25 06:19:37;;;;;;;8.80;8.00;;;;;;;;;;5019882;28;20028;-78
2023/03/25 06:22:03;;;;;;;9.60;8.70;;;;;;;;;;5007322;28;20065;-77
2023/03/25 06:24:28;;;;;;;8.87;8.03;;;;;;;;;;5013511;28;20507;-79
2023/03/25 06:26:53;;;;;;;7.50;6.80;;;;;;;;;;5018194;28;20283;-79
2023/03/25 06:29:18;;;;;;;6.10;5.70;;;;;;;;;;5017564;28;20260;-79
2023/03/25 06:31:44;;;;;;;6.03;5.47;;;;;;;;;;5017627;28;20280;-79
2023/03/25 06:34:09;;;;;;;6.40;5.80;;;;;;;;;;5011938;28;20022;-79
2023/03/25 06:36:34;;;;;;;6.80;6.37;;;;;;;;;;5009300;28;20083;-78
2023/03/25 06:39:00;;;;;;;7.27;6.77;;;;;;;;;;5017352;28;20275;-79
2023/03/25 06:41:25;;;;;;;8.20;7.40;;;;;;;;;;5019592;28;20071;-78
2023/03/25 06:43:50;;;;;;;8.13;7.43;;;;;;;;;;5018151;28;20021;-79
2023/03/25 06:46:15;;;;;;;7.67;7.07;;;;;;;;;;5019796;28;20029;-79
2023/03/25 06:48:41;;;;;;;8.47;7.73;;;;;;;;;;5016620;28;20021;-78
2023/03/25 06:51:06;;;;;;;9.68;8.88;;;;;;;;;;5019268;28;20160;-79
2023/03/25 06:53:31;;;;;;;8.70;8.10;;;;;;;;;;5010934;28;20818;-78
2023/03/25 06:55:57;;;;;;;9.73;8.77;;;;;;;;;;5008763;28;20025;-78
2023/03/25 06:58:22;;;;;;;10.65;8.88;;;;;;;;;;5024344;28;20033;-79
2023/03/25 07:01:02;;;;;;;10.47;9.47;;;;;;;;;;5026703;28;20041;-79
2023/03/25 07:03:27;;;;;;;10.07;9.15;;;;;;;;;;5018926;28;20154;-78
2023/03/25 07:05:53;;;;;;;10.18;9.27;;;;;;;;;;5019194;28;20021;-78
2023/03/25 07:08:18;;;;;;;10.73;9.20;;;;;;;;;;5020049;28;20406;-78
2023/03/25 07:10:43;;;;;;;10.17;9.27;;;;;;;;;;5031141;28;20064;-76
2023/03/25 07:13:09;;;;;;;9.87;9.00;;;;;;;;;;5017885;28;20068;-78
2023/03/25 07:15:35;;;;;;;9.98;9.07;;;;;;;;;;5006994;28;20026;-78
2023/03/25 07:18:00;;;;;;;10.88;9.88;;;;;;;;;;5023763;28;20024;-78
2023/03/25 07:20:25;;;;;;;9.75;9.00;;;;;;;;;;5022655;28;20116;-75
2023/03/25 07:22:52;;;;;;;10.00;9.30;;;;;;;;;;5018159;28;20518;-77
2023/03/25 07:25:17;;;;;;;9.77;9.03;;;;;;;;;;5018674;28;20033;-77
2023/03/25 07:27:43;;;;;;;12.43;9.70;;;;;;;;;;5020462;28;20035;-77
2023/03/25 07:30:09;;;;;;;9.53;8.73;;;;;;;;;;5038711;28;20009;-77
2023/03/25 07:32:34;;;;;;;9.75;8.82;;;;;;;;;;5008157;28;20095;-76
2023/03/25 07:34:59;;;;;;;9.60;8.70;;;;;;;;;;5011972;28;20060;-76
2023/03/25 07:37:25;;;;;;;9.30;8.50;;;;;;;;;;5001747;28;20652;-78
2023/03/25 07:39:50;;;;;;;10.73;9.77;;;;;;;;;;5005641;28;20014;-78
2023/03/25 07:42:16;;;;;;;9.83;9.07;;;;;;;;;;5009802;28;20045;-78
2023/03/25 07:44:41;;;;;;;10.82;9.73;;;;;;;;;;5002053;28;20030;-79
2023/03/25 07:47:06;;;;;;;10.47;9.57;;;;;;;;;;5008853;28;20053;-79
2023/03/25 07:49:31;;;;;;;9.50;8.63;;;;;;;;;;5001712;28;20022;-78
2023/03/25 07:51:57;;;;;;;10.98;9.98;;;;;;;;;;5006576;28;20025;-79
2023/03/25 07:54:23;;;;;;;15.10;9.47;;;;;;;;;;5016673;28;20027;-79
2023/03/25 07:56:49;;;;;;;8.15;7.45;;;;;;;;;;5021628;28;20282;-80
2023/03/25 07:59:15;;;;;;;9.05;8.15;;;;;;;;;;5017814;28;20021;-79
2023/03/25 08:01:40;;;;;;;9.80;7.55;;;;;;;;;;5012443;28;20570;-78
2023/03/25 08:04:05;;;;;;;8.38;7.57;;;;;;;;;;5010926;28;20549;-79
2023/03/25 08:06:31;;;;;;;8.40;6.97;;;;;;;;;;5015709;28;20503;-79
2023/03/25 08:08:56;;;;;;;7.57;6.75;;;;;;;;;;5013043;28;20080;-78
2023/03/25 08:11:21;;;;;;;9.18;7.88;;;;;;;;;;5002836;28;20684;-79
2023/03/25 08:13:47;;;;;;;7.68;6.80;;;;;;;;;;5001273;28;20455;-78
2023/03/25 08:16:12;;;;;;;7.78;6.72;;;;;;;;;;5015633;28;20033;-79
2023/03/25 08:18:38;;;;;;;11.15;7.32;;;;;;;;;;5012994;28;20029;-80
2023/03/25 08:21:03;;;;;;;8.93;8.00;;;;;;;;;;5011910;28;20278;-81
2023/03/25 08:23:28;;;;;;;7.22;6.47;;;;;;;;;;5005280;28;20557;-81
2023/03/25 08:25:54;;;;;;;7.60;7.00;;;;;;;;;;5006443;28;20029;-80
2023/03/25 08:28:21;;;;;;;9.40;6.57;;;;;;;;;;5013869;28;20311;-81
2023/03/25 08:30:48;;;;;;;11.07;7.38;;;;;;;;;;5027897;28;20255;-80
2023/03/25 08:33:13;;;;;;;12.02;7.25;;;;;;;;;;5015307;28;20496;-80
2023/03/25 08:35:39;;;;;;;6.97;6.38;;;;;;;;;;5000209;28;20026;-80
2023/03/25 08:38:05;;;;;;;7.68;6.93;;;;;;;;;;4998254;28;20077;-80
2023/03/25 08:40:31;;;;;;;7.70;6.90;;;;;;;;;;5008871;28;20036;-81
2023/03/25 08:42:57;;;;;;;8.48;7.00;;;;;;;;;;5015388;28;20044;-81
2023/03/25 08:45:22;;;;;;;9.82;6.82;;;;;;;;;;5020055;28;20026;-80
2023/03/25 08:47:48;;;;;;;8.07;7.32;;;;;;;;;;5030884;28;20025;-79
2023/03/25 08:50:13;;;;;;;8.23;7.53;;;;;;;;;;5019467;28;20065;-80
2023/03/25 08:52:38;;;;;;;8.60;7.63;;;;;;;;;;5010243;28;20165;-79
2023/03/25 08:55:06;;;;;;;9.27;6.60;;;;;;;;;;5020169;28;20068;-80
2023/03/25 08:57:32;;;;;;;7.55;6.40;;;;;;;;;;5020553;28;20112;-80
2023/03/25 08:59:57;;;;;;;7.07;5.85;;;;;;;;;;5020311;28;20563;-80
2023/03/25 09:02:22;;;;;;;7.20;6.50;;;;;;;;;;5019774;28;20148;-80
2023/03/25 09:04:48;;;;;;;6.87;6.27;;;;;;;;;;5020561;28;20547;-80
2023/03/25 09:07:13;;;;;;;6.82;6.22;;;;;;;;;;5020085;28;20551;-80
2023/03/25 09:09:39;;;;;;;10.83;6.00;;;;;;;;;;5020593;28;20025;-79
2023/03/25 09:12:05;;;;;;;7.88;7.07;;;;;;;;;;5019803;28;20841;-79
2023/03/25 09:14:30;;;;;;;6.32;5.72;;;;;;;;;;5020538;28;20123;-79
2023/03/25 09:16:55;;;;;;;7.53;6.80;;;;;;;;;;5019972;28;20025;-79
2023/03/25 09:19:21;;;;;;;7.30;6.70;;;;;;;;;;5020074;28;20402;-79
2023/03/25 09:21:46;;;;;;;7.00;6.30;;;;;;;;;;5020219;28;20307;-78
2023/03/25 09:24:12;;;;;;;8.98;6.18;;;;;;;;;;5019838;28;20014;-79
2023/03/25 09:26:38;;;;;;;7.90;5.70;;;;;;;;;;5020137;28;20056;-79
2023/03/25 09:29:03;;;;;;;6.10;5.50;;;;;;;;;;5019479;28;20055;-79
2023/03/25 09:31:29;;;;;;;6.80;5.37;;;;;;;;;;5020624;28;20443;-79
2023/03/25 09:33:55;;;;;;;6.68;5.55;;;;;;;;;;5018531;28;20296;-80
2023/03/25 09:36:20;;;;;;;5.90;5.28;;;;;;;;;;5019114;28;20025;-79
2023/03/25 09:38:45;;;;;;;5.63;5.10;;;;;;;;;;5020367;28;20022;-79
2023/03/25 09:41:40;;;;;;;7.90;6.37;;;;;;;;;;5018832;28;20795;-79
2023/03/25 09:44:09;;;;;;;6.45;5.70;;;;;;;;;;5023319;28;20359;-79
2023/03/25 09:46:36;;;;;;;6.03;5.43;;;;;;;;;;5004470;28;20132;-79
2023/03/25 09:49:01;;;;;;;6.25;5.65;;;;;;;;;;5013199;28;20025;-79
2023/03/25 09:51:28;;;;;;;5.65;5.25;;;;;;;;;;5018519;28;20064;-78
2023/03/25 09:54:17;;;;;;;8.05;5.97;;;;;;;;;;5017231;28;20140;-79
2023/03/25 09:56:42;;;;;;;5.93;5.47;;;;;;;;;;5007422;28;20026;-79
2023/03/25 09:59:14;;;;;;;10.02;5.35;;;;;;;;;;5019192;28;20505;-79
2023/03/25 10:01:42;;;;;;;7.00;5.40;;;;;;;;;;5019274;28;20057;-79
2023/03/25 10:04:14;;;;;;;8.73;5.75;;;;;;;;;;5018977;28;20096;-78
2023/03/25 10:06:45;;;;;;;5.22;4.70;;;;;;;;;;5019479;28;20033;-79
2023/03/25 10:09:26;;;;;;;5.78;4.20;;;;;;;;;;5018483;28;20430;-79
2023/03/25 10:11:59;;;;;;;4.57;3.90;;;;;;;;;;5019187;28;20099;-80
2023/03/25 10:14:31;;;;;;;4.47;4.00;;;;;;;;;;5018960;28;20021;-79
2023/03/25 10:17:03;;;;;;;4.35;3.97;;;;;;;;;;5019095;28;20030;-79
2023/03/25 10:19:53;;;;;;;3.80;3.50;;;;;;;;;;5017155;28;20025;-79
2023/03/25 10:22:24;;;;;;;4.57;3.40;;;;;;;;;;5016702;28;20522;-79
2023/03/25 10:25:01;;;;;;;4.78;4.38;;;;;;;;;;5018095;28;20025;-78
2023/03/25 10:27:41;;;;;;;13.55;3.53;;;;;;;;;;5032727;28;20112;-78
2023/03/25 10:30:06;;;;;;;5.80;3.42;;;;;;;;;;5019416;28;20033;-77
2023/03/25 10:32:36;;;;;;;9.30;4.07;;;;;;;;;;5019603;28;20024;-78
2023/03/25 10:35:04;;;;;;;4.53;4.03;;;;;;;;;;5020251;28;20506;-78
2023/03/25 10:37:34;;;;;;;11.40;4.20;;;;;;;;;;5010945;28;20049;-77
2023/03/25 10:40:12;;;;;;;6.03;4.20;;;;;;;;;;5012289;28;20030;-78
2023/03/25 10:42:54;;;;;;;4.32;3.92;;;;;;;;;;5017843;28;20055;-78
2023/03/25 10:45:19;;;;;;;7.90;3.60;;;;;;;;;;5014483;28;20487;-77
2023/03/25 10:47:45;;;;;;;6.57;3.50;;;;;;;;;;5011412;28;20036;-77
2023/03/25 10:50:15;;;;;;;4.90;4.28;;;;;;;;;;5015206;28;20033;-77
2023/03/25 10:52:40;;;;;;;4.10;3.80;;;;;;;;;;5016380;28;20068;-77
2023/03/25 10:55:13;;;;;;;8.38;3.70;;;;;;;;;;5016708;28;20589;-77
2023/03/25 10:57:39;;;;;;;5.05;3.33;;;;;;;;;;5018903;28;20025;-77
2023/03/25 11:00:11;;;;;;;4.68;4.15;;;;;;;;;;5007518;28;20033;-77
2023/03/25 11:02:36;;;;;;;6.05;4.35;;;;;;;;;;5020458;28;20140;-78
2023/03/25 11:05:03;;;;;;;3.83;3.38;;;;;;;;;;5018720;28;20092;-78
2023/03/25 11:07:36;;;;;;;7.28;4.93;;;;;;;;;;5018284;28;20025;-78
2023/03/25 11:10:08;;;;;;;19.67;10.50;;;;;;;;;;5018408;28;20013;-77
2023/03/25 11:12:33;;;;;;;22.02;8.35;;;;;;;;;;5015045;28;20068;-77
2023/03/25 11:15:00;;;;;;;9.17;5.40;;;;;;;;;;5019578;28;20045;-77
2023/03/25 11:17:26;;;;;;;6.10;4.63;;;;;;;;;;5017462;28;20312;-77
2023/03/25 11:19:51;;;;;;;6.45;4.40;;;;;;;;;;5013939;28;20055;-78
2023/03/25 11:22:18;;;;;;;7.27;4.20;;;;;;;;;;5016706;28;20025;-77
2023/03/25 11:24:46;;;;;;;6.07;4.05;;;;;;;;;;5013812;28;20030;-78
2023/03/25 11:27:20;;;;;;;3.70;3.03;;;;;;;;;;5015307;28;20144;-77
2023/03/25 11:29:51;;;;;;;4.57;2.90;;;;;;;;;;5014204;28;20276;-77
2023/03/25 11:32:21;;;;;;;3.63;3.08;;;;;;;;;;5016225;28;20048;-77
2023/03/25 11:34:47;;;;;;;2.95;2.70;;;;;;;;;;5015717;28;20380;-78
2023/03/25 11:37:16;;;;;;;3.22;2.92;;;;;;;;;;5015061;28;20084;-78
2023/03/25 11:39:42;;;;;;;4.18;3.22;;;;;;;;;;5015487;28;20593;-77
2023/03/25 11:42:21;;;;;;;5.15;2.65;;;;;;;;;;5017358;28;20044;-78
2023/03/25 11:44:51;;;;;;;4.05;2.80;;;;;;;;;;5012832;28;20509;-77
2023/03/25 11:47:20;;;;;;;2.58;2.33;;;;;;;;;;5012994;28;20039;-77
2023/03/25 11:49:48;;;;;;;3.00;2.70;;;;;;;;;;5013367;28;20031;-76
2023/03/25 11:52:16;;;;;;;3.67;2.55;;;;;;;;;;5010779;28;20018;-78
2023/03/25 11:54:42;;;;;;;2.65;2.35;;;;;;;;;;5024455;28;20112;-77
2023/03/25 11:57:21;;;;;;;5.65;2.60;;;;;;;;;;5021122;28;20530;-77
2023/03/25 11:59:47;;;;;;;5.40;2.63;;;;;;;;;;5030102;28;20303;-77
2023/03/25 12:02:18;;;;;;;3.78;2.28;;;;;;;;;;5024460;28;20053;-78
2023/03/25 12:04:57;;;;;;;3.33;2.72;;;;;;;;;;5012539;28;20037;-77
2023/03/25 12:07:23;;;;;;;2.88;2.53;;;;;;;;;;5024854;28;20491;-77
2023/03/25 12:09:56;;;;;;;3.55;2.97;;;;;;;;;;5034375;28;20032;-76
2023/03/25 12:12:28;;;;;;;4.28;2.88;;;;;;;;;;5021439;28;20033;-76
2023/03/25 12:15:00;;;;;;;5.10;2.95;;;;;;;;;;5011782;28;20300;-76
2023/03/25 12:17:25;;;;;;;3.50;3.00;;;;;;;;;;5017406;28;20104;-75
2023/03/25 12:20:10;;;;;;;5.03;3.65;;;;;;;;;;5022437;28;20435;-76
2023/03/25 12:22:59;;;;;;;4.47;3.35;;;;;;;;;;5022342;28;20029;-76
2023/03/25 12:25:27;;;;;;;;;;;;;;;;;;5013254;28;20032;-76
2023/03/25 12:27:56;;;;;;;6.97;3.22;;;;;;;;;;5021835;28;19913;-76
2023/03/25 12:30:31;;;;;;;3.27;2.80;;;;;;;;;;5017933;28;20059;-76
2023/03/25 12:33:02;;;;;;;4.95;3.58;;;;;;;;;;5022581;28;20033;-76
2023/03/25 12:35:48;;;;;;;5.30;3.55;;;;;;;;;;5021740;28;20071;-76
2023/03/25 12:38:29;;;;;;;3.10;2.80;;;;;;;;;;5015188;28;20029;-75
2023/03/25 12:41:06;;;;;;;2.65;2.45;;;;;;;;;;5021488;28;20032;-74
2023/03/25 12:43:50;;;;;;;5.20;2.42;;;;;;;;;;5022123;28;20041;-75
2023/03/25 12:46:27;;;;;;;2.63;2.42;;;;;;;;;;5022532;28;20028;-76
2023/03/25 12:49:18;;;;;;;2.70;2.50;;;;;;;;;;5008346;28;20025;-74
2023/03/25 12:51:56;;;;;;;4.22;2.60;;;;;;;;;;5027469;28;20033;-74
2023/03/25 12:54:22;;;;;;;7.40;2.58;;;;;;;;;;5009234;28;20029;-74
2023/03/25 12:57:05;;;;;;;8.27;2.80;;;;;;;;;;5016723;28;20438;-75
2023/03/25 12:59:31;;;;;;;3.35;3.05;;;;;;;;;;5016443;28;20401;-75
2023/03/25 13:01:56;;;;;;;5.50;2.90;;;;;;;;;;5020016;28;20061;-75
2023/03/25 13:04:30;;;;;;;5.82;2.95;;;;;;;;;;5020823;28;20262;-75
2023/03/25 13:07:13;;;;;;;3.70;2.63;;;;;;;;;;5007844;28;20072;-75
2023/03/25 13:09:57;;;;;;;3.40;3.10;;;;;;;;;;5020755;28;20025;-75
2023/03/25 13:12:31;;;;;;;3.67;2.97;;;;;;;;;;5021529;28;20437;-75
2023/03/25 13:15:02;;;;;;;4.03;2.90;;;;;;;;;;5020592;28;20030;-75
2023/03/25 13:17:30;;;;;;;3.42;2.67;;;;;;;;;;5020592;28;20052;-75
2023/03/25 13:19:58;;;;;;;3.30;2.88;;;;;;;;;;5019824;28;20025;-75
2023/03/25 13:22:27;;;;;;;4.38;2.83;;;;;;;;;;5021599;28;20037;-75
2023/03/25 13:24:56;;;;;;;3.40;3.10;;;;;;;;;;5020152;28;20021;-75
2023/03/25 13:27:22;;;;;;;7.45;2.83;;;;;;;;;;5009192;28;20022;-75
2023/03/25 13:29:50;;;;;;;3.42;3.20;;;;;;;;;;5019547;28;20480;-75
2023/03/25 13:32:21;;;;;;;3.78;3.00;;;;;;;;;;5021152;28;20017;-75
2023/03/25 13:34:58;;;;;;;4.82;2.88;;;;;;;;;;5011485;28;20038;-75
2023/03/25 13:37:32;;;;;;;3.67;2.63;;;;;;;;;;5015517;28;20021;-75
2023/03/25 13:39:57;;;;;;;3.10;2.55;;;;;;;;;;5021262;28;20057;-75
2023/03/25 13:42:26;;;;;;;3.07;2.33;;;;;;;;;;5017882;28;20116;-75
2023/03/25 13:44:53;;;;;;;2.55;2.35;;;;;;;;;;5019788;28;20264;-75
2023/03/25 13:47:38;;;;;;;3.33;2.15;;;;;;;;;;5026948;28;20013;-75
2023/03/25 13:50:13;;;;;;;4.15;2.60;;;;;;;;;;4998407;28;20144;-75
2023/03/25 13:52:41;;;;;;;2.88;2.50;;;;;;;;;;5009665;28;20026;-76
2023/03/25 13:55:18;;;;;;;3.77;3.13;;;;;;;;;;5018143;28;20021;-75
2023/03/25 13:57:58;;;;;;;4.05;2.75;;;;;;;;;;5015768;28;20359;-75
2023/03/25 14:00:49;;;;;;;3.53;2.53;;;;;;;;;;5012160;28;20468;-75
2023/03/25 14:03:17;;;;;;;2.70;2.50;;;;;;;;;;5017892;28;20100;-75
2023/03/25 14:05:45;;;;;;;4.00;2.65;;;;;;;;;;5018369;28;20029;-75
2023/03/25 14:08:11;;;;;;;4.97;2.70;;;;;;;;;;5019878;28;20536;-75
2023/03/25 14:10:41;;;;;;;4.30;2.50;;;;;;;;;;5020167;28;20021;-75
2023/03/25 14:13:11;;;;;;;3.25;2.53;;;;;;;;;;5020604;28;20017;-75
2023/03/25 14:15:39;;;;;;;3.08;2.10;;;;;;;;;;5018420;28;20009;-75
2023/03/25 14:18:04;;;;;;;4.75;2.58;;;;;;;;;;5008583;28;20018;-75
2023/03/25 14:20:34;;;;;;;5.05;2.63;;;;;;;;;;5017022;28;20075;-76
2023/03/25 14:23:06;;;;;;;4.57;2.22;;;;;;;;;;5009323;28;20042;-86
2023/03/25 14:25:40;;;;;;;6.38;2.70;;;;;;;;;;5024283;28;20589;-75
2023/03/25 14:28:06;;;;;;;5.85;2.47;;;;;;;;;;5020122;28;20059;-75
2023/03/25 14:30:32;;;;;;;6.28;3.08;;;;;;;;;;4998973;28;20125;-76
2023/03/25 14:33:01;;;;;;;3.10;2.67;;;;;;;;;;5013441;28;20546;-76
2023/03/25 14:35:33;;;;;;;2.75;2.55;;;;;;;;;;5011462;28;20026;-75
2023/03/25 14:38:04;;;;;;;3.50;2.45;;;;;;;;;;5017668;28;20029;-75
2023/03/25 14:40:42;;;;;;;3.30;2.70;;;;;;;;;;5005331;28;20022;-76
2023/03/25 14:43:24;;;;;;;5.88;3.58;;;;;;;;;;5011386;28;20427;-75
2023/03/25 14:45:57;;;;;;;3.20;2.90;;;;;;;;;;5009035;28;20021;-76
2023/03/25 14:48:36;;;;;;;5.00;2.80;;;;;;;;;;5019523;28;20029;-75
2023/03/25 14:51:09;;;;;;;3.17;2.30;;;;;;;;;;5015665;28;20113;-76
2023/03/25 14:53:35;;;;;;;2.70;2.50;;;;;;;;;;5019566;28;20032;-75